sensor_id;sensor_type;location;lat;lon;timestamp;P1;durP1;ratioP1;P2;durP2;ratioP2
51090;SDS011;37136;43.614;3.908;2023-03-21T00:00:23;9.70;;;4.97;;
51090;SDS011;37136;43.614;3.908;2023-03-21T00:02:49;10.38;;;4.75;;
51090;SDS011;37136;43.614;3.908;2023-03-21T00:05:15;5.88;;;4.40;;
51090;SDS011;37136;43.614;3.908;2023-03-21T00:07:41;7.88;;;4.60;;
51090;SDS011;37136;43.614;3.908;2023-03-21T00:10:08;9.02;;;4.80;;
51090;SDS011;37136;43.614;3.908;2023-03-21T00:12:34;5.25;;;3.50;;
51090;SDS011;37136;43.614;3.908;2023-03-21T00:15:05;6.60;;;4.07;;
51090;SDS011;37136;43.614;3.908;2023-03-21T00:17:32;5.63;;;3.75;;
51090;SDS011;37136;43.614;3.908;2023-03-21T00:20:02;6.05;;;3.70;;
51090;SDS011;37136;43.614;3.908;2023-03-21T00:22:29;6.15;;;3.83;;
51090;SDS011;37136;43.614;3.908;2023-03-21T00:24:56;6.28;;;3.90;;
51090;SDS011;37136;43.614;3.908;2023-03-21T00:27:22;5.93;;;3.28;;
51090;SDS011;37136;43.614;3.908;2023-03-21T00:29:48;4.65;;;3.30;;
51090;SDS011;37136;43.614;3.908;2023-03-21T00:32:15;5.63;;;3.60;;
51090;SDS011;37136;43.614;3.908;2023-03-21T00:34:41;5.00;;;3.20;;
51090;SDS011;37136;43.614;3.908;2023-03-21T00:37:08;7.75;;;3.60;;
51090;SDS011;37136;43.614;3.908;2023-03-21T00:39:36;4.93;;;2.83;;
51090;SDS011;37136;43.614;3.908;2023-03-21T00:42:02;6.22;;;3.60;;
51090;SDS011;37136;43.614;3.908;2023-03-21T00:44:28;5.40;;;3.10;;
51090;SDS011;37136;43.614;3.908;2023-03-21T00:47:00;9.23;;;3.35;;
51090;SDS011;37136;43.614;3.908;2023-03-21T00:49:27;3.83;;;2.90;;
51090;SDS011;37136;43.614;3.908;2023-03-21T00:51:58;5.90;;;3.40;;
51090;SDS011;37136;43.614;3.908;2023-03-21T00:54:24;4.50;;;3.28;;
51090;SDS011;37136;43.614;3.908;2023-03-21T00:56:51;6.20;;;3.45;;
51090;SDS011;37136;43.614;3.908;2023-03-21T00:59:17;6.30;;;3.60;;
51090;SDS011;37136;43.614;3.908;2023-03-21T01:01:44;6.50;;;3.25;;
51090;SDS011;37136;43.614;3.908;2023-03-21T01:04:11;13.18;;;3.85;;
51090;SDS011;37136;43.614;3.908;2023-03-21T01:06:39;4.87;;;3.07;;
51090;SDS011;37136;43.614;3.908;2023-03-21T01:09:06;7.75;;;3.75;;
51090;SDS011;37136;43.614;3.908;2023-03-21T01:11:35;4.43;;;3.60;;
51090;SDS011;37136;43.614;3.908;2023-03-21T01:14:01;5.80;;;2.97;;
51090;SDS011;37136;43.614;3.908;2023-03-21T01:16:27;6.82;;;3.00;;
51090;SDS011;37136;43.614;3.908;2023-03-21T01:18:53;5.28;;;3.22;;
51090;SDS011;37136;43.614;3.908;2023-03-21T01:21:20;7.75;;;4.13;;
51090;SDS011;37136;43.614;3.908;2023-03-21T01:23:46;6.97;;;3.72;;
51090;SDS011;37136;43.614;3.908;2023-03-21T01:26:13;6.05;;;3.92;;
51090;SDS011;37136;43.614;3.908;2023-03-21T01:28:40;5.43;;;3.80;;
51090;SDS011;37136;43.614;3.908;2023-03-21T01:31:06;7.18;;;4.13;;
51090;SDS011;37136;43.614;3.908;2023-03-21T01:33:33;6.30;;;3.72;;
51090;SDS011;37136;43.614;3.908;2023-03-21T01:36:00;10.55;;;3.80;;
51090;SDS011;37136;43.614;3.908;2023-03-21T01:38:26;8.43;;;3.58;;
51090;SDS011;37136;43.614;3.908;2023-03-21T01:40:53;5.30;;;3.20;;
51090;SDS011;37136;43.614;3.908;2023-03-21T01:48:30;5.38;;;3.50;;
51090;SDS011;37136;43.614;3.908;2023-03-21T01:50:56;4.47;;;3.05;;
51090;SDS011;37136;43.614;3.908;2023-03-21T01:53:24;5.57;;;3.42;;
51090;SDS011;37136;43.614;3.908;2023-03-21T01:55:55;6.88;;;3.38;;
51090;SDS011;37136;43.614;3.908;2023-03-21T01:58:21;3.88;;;3.20;;
51090;SDS011;37136;43.614;3.908;2023-03-21T02:00:48;4.88;;;2.92;;
51090;SDS011;37136;43.614;3.908;2023-03-21T02:03:15;4.70;;;3.22;;
51090;SDS011;37136;43.614;3.908;2023-03-21T02:08:27;6.07;;;3.42;;
51090;SDS011;37136;43.614;3.908;2023-03-21T02:10:53;7.75;;;3.72;;
51090;SDS011;37136;43.614;3.908;2023-03-21T02:13:20;7.35;;;3.40;;
51090;SDS011;37136;43.614;3.908;2023-03-21T02:16:20;5.05;;;3.40;;
51090;SDS011;37136;43.614;3.908;2023-03-21T02:28:56;5.20;;;3.50;;
51090;SDS011;37136;43.614;3.908;2023-03-21T02:42:01;5.82;;;2.85;;
51090;SDS011;37136;43.614;3.908;2023-03-21T02:47:28;4.15;;;2.80;;
51090;SDS011;37136;43.614;3.908;2023-03-21T02:52:25;6.90;;;2.30;;
51090;SDS011;37136;43.614;3.908;2023-03-21T02:54:51;4.82;;;2.50;;
51090;SDS011;37136;43.614;3.908;2023-03-21T02:57:18;2.28;;;2.03;;
51090;SDS011;37136;43.614;3.908;2023-03-21T02:59:48;4.72;;;2.65;;
51090;SDS011;37136;43.614;3.908;2023-03-21T03:02:15;4.72;;;2.80;;
51090;SDS011;37136;43.614;3.908;2023-03-21T03:04:42;6.38;;;2.75;;
51090;SDS011;37136;43.614;3.908;2023-03-21T03:07:18;7.90;;;2.90;;
51090;SDS011;37136;43.614;3.908;2023-03-21T03:14:49;6.20;;;2.78;;
51090;SDS011;37136;43.614;3.908;2023-03-21T03:17:27;3.90;;;2.55;;
51090;SDS011;37136;43.614;3.908;2023-03-21T03:20:07;5.82;;;2.67;;
51090;SDS011;37136;43.614;3.908;2023-03-21T03:22:45;4.10;;;2.67;;
51090;SDS011;37136;43.614;3.908;2023-03-21T03:25:13;3.67;;;2.72;;
51090;SDS011;37136;43.614;3.908;2023-03-21T03:27:44;3.33;;;2.58;;
51090;SDS011;37136;43.614;3.908;2023-03-21T03:30:12;2.67;;;2.25;;
51090;SDS011;37136;43.614;3.908;2023-03-21T03:32:41;3.97;;;2.72;;
51090;SDS011;37136;43.614;3.908;2023-03-21T03:35:10;3.53;;;3.20;;
51090;SDS011;37136;43.614;3.908;2023-03-21T03:37:38;7.20;;;3.72;;
51090;SDS011;37136;43.614;3.908;2023-03-21T03:42:35;3.90;;;2.75;;
51090;SDS011;37136;43.614;3.908;2023-03-21T03:45:03;4.43;;;2.43;;
51090;SDS011;37136;43.614;3.908;2023-03-21T03:47:36;6.00;;;2.20;;
51090;SDS011;37136;43.614;3.908;2023-03-21T03:50:06;3.15;;;2.40;;
51090;SDS011;37136;43.614;3.908;2023-03-21T03:52:41;3.38;;;2.58;;
51090;SDS011;37136;43.614;3.908;2023-03-21T03:55:09;2.85;;;2.25;;
51090;SDS011;37136;43.614;3.908;2023-03-21T03:57:36;2.97;;;2.33;;
51090;SDS011;37136;43.614;3.908;2023-03-21T04:00:02;3.35;;;2.80;;
51090;SDS011;37136;43.614;3.908;2023-03-21T04:02:36;5.43;;;2.70;;
51090;SDS011;37136;43.614;3.908;2023-03-21T04:05:02;2.45;;;1.90;;
51090;SDS011;37136;43.614;3.908;2023-03-21T04:07:28;4.25;;;2.30;;
51090;SDS011;37136;43.614;3.908;2023-03-21T04:09:55;3.78;;;2.28;;
51090;SDS011;37136;43.614;3.908;2023-03-21T04:12:21;3.60;;;2.40;;
51090;SDS011;37136;43.614;3.908;2023-03-21T04:14:48;5.70;;;2.15;;
51090;SDS011;37136;43.614;3.908;2023-03-21T04:17:14;5.35;;;2.78;;
51090;SDS011;37136;43.614;3.908;2023-03-21T04:19:41;3.03;;;2.17;;
51090;SDS011;37136;43.614;3.908;2023-03-21T04:22:07;5.50;;;2.15;;
51090;SDS011;37136;43.614;3.908;2023-03-21T04:24:33;5.75;;;2.50;;
51090;SDS011;37136;43.614;3.908;2023-03-21T04:27:01;3.97;;;2.20;;
51090;SDS011;37136;43.614;3.908;2023-03-21T04:29:29;4.17;;;2.60;;
51090;SDS011;37136;43.614;3.908;2023-03-21T04:31:55;2.80;;;1.90;;
51090;SDS011;37136;43.614;3.908;2023-03-21T04:34:21;3.90;;;2.10;;
51090;SDS011;37136;43.614;3.908;2023-03-21T04:36:52;4.45;;;2.42;;
51090;SDS011;37136;43.614;3.908;2023-03-21T04:39:19;4.10;;;1.98;;
51090;SDS011;37136;43.614;3.908;2023-03-21T04:41:46;5.93;;;2.10;;
51090;SDS011;37136;43.614;3.908;2023-03-21T04:44:13;3.38;;;2.10;;
51090;SDS011;37136;43.614;3.908;2023-03-21T04:46:40;6.28;;;2.17;;
51090;SDS011;37136;43.614;3.908;2023-03-21T04:49:06;3.72;;;1.90;;
51090;SDS011;37136;43.614;3.908;2023-03-21T04:51:33;4.88;;;2.08;;
51090;SDS011;37136;43.614;3.908;2023-03-21T04:53:59;3.13;;;2.10;;
51090;SDS011;37136;43.614;3.908;2023-03-21T04:56:26;5.85;;;2.60;;
51090;SDS011;37136;43.614;3.908;2023-03-21T04:58:57;4.82;;;2.45;;
51090;SDS011;37136;43.614;3.908;2023-03-21T05:01:23;3.95;;;2.33;;
51090;SDS011;37136;43.614;3.908;2023-03-21T05:03:50;4.00;;;2.20;;
51090;SDS011;37136;43.614;3.908;2023-03-21T05:06:16;4.60;;;2.65;;
51090;SDS011;37136;43.614;3.908;2023-03-21T05:08:42;3.83;;;1.95;;
51090;SDS011;37136;43.614;3.908;2023-03-21T05:11:08;3.40;;;2.50;;
51090;SDS011;37136;43.614;3.908;2023-03-21T05:13:35;4.78;;;2.10;;
51090;SDS011;37136;43.614;3.908;2023-03-21T05:16:01;5.13;;;2.40;;
51090;SDS011;37136;43.614;3.908;2023-03-21T05:18:27;5.63;;;2.20;;
51090;SDS011;37136;43.614;3.908;2023-03-21T05:20:54;2.22;;;1.88;;
51090;SDS011;37136;43.614;3.908;2023-03-21T05:23:22;4.63;;;2.38;;
51090;SDS011;37136;43.614;3.908;2023-03-21T05:25:48;3.20;;;1.88;;
51090;SDS011;37136;43.614;3.908;2023-03-21T05:28:15;5.72;;;2.47;;
51090;SDS011;37136;43.614;3.908;2023-03-21T05:30:44;4.97;;;2.50;;
51090;SDS011;37136;43.614;3.908;2023-03-21T05:33:11;2.97;;;2.10;;
51090;SDS011;37136;43.614;3.908;2023-03-21T05:35:37;4.18;;;2.13;;
51090;SDS011;37136;43.614;3.908;2023-03-21T05:38:04;4.90;;;2.25;;
51090;SDS011;37136;43.614;3.908;2023-03-21T05:40:30;4.93;;;2.13;;
51090;SDS011;37136;43.614;3.908;2023-03-21T05:42:56;4.28;;;2.28;;
51090;SDS011;37136;43.614;3.908;2023-03-21T05:45:22;5.28;;;2.50;;
51090;SDS011;37136;43.614;3.908;2023-03-21T05:47:48;4.05;;;2.17;;
51090;SDS011;37136;43.614;3.908;2023-03-21T05:50:14;2.78;;;1.98;;
51090;SDS011;37136;43.614;3.908;2023-03-21T05:52:40;3.95;;;2.20;;
51090;SDS011;37136;43.614;3.908;2023-03-21T05:55:07;4.53;;;1.88;;
51090;SDS011;37136;43.614;3.908;2023-03-21T05:57:33;6.07;;;2.28;;
51090;SDS011;37136;43.614;3.908;2023-03-21T06:00:03;5.85;;;2.63;;
51090;SDS011;37136;43.614;3.908;2023-03-21T06:02:30;5.68;;;2.33;;
51090;SDS011;37136;43.614;3.908;2023-03-21T06:04:56;4.95;;;2.55;;
51090;SDS011;37136;43.614;3.908;2023-03-21T06:07:22;4.45;;;2.13;;
51090;SDS011;37136;43.614;3.908;2023-03-21T06:09:48;5.60;;;2.17;;
51090;SDS011;37136;43.614;3.908;2023-03-21T06:12:14;7.90;;;2.58;;
51090;SDS011;37136;43.614;3.908;2023-03-21T06:14:40;5.63;;;3.03;;
51090;SDS011;37136;43.614;3.908;2023-03-21T06:17:06;7.78;;;2.70;;
51090;SDS011;37136;43.614;3.908;2023-03-21T06:19:32;8.20;;;1.90;;
51090;SDS011;37136;43.614;3.908;2023-03-21T06:21:58;4.75;;;2.67;;
51090;SDS011;37136;43.614;3.908;2023-03-21T06:24:25;6.65;;;2.28;;
51090;SDS011;37136;43.614;3.908;2023-03-21T06:26:51;5.53;;;2.40;;
51090;SDS011;37136;43.614;3.908;2023-03-21T06:29:17;6.93;;;2.72;;
51090;SDS011;37136;43.614;3.908;2023-03-21T06:31:43;7.72;;;3.25;;
51090;SDS011;37136;43.614;3.908;2023-03-21T06:34:10;3.35;;;2.17;;
51090;SDS011;37136;43.614;3.908;2023-03-21T06:36:36;4.03;;;2.38;;
51090;SDS011;37136;43.614;3.908;2023-03-21T06:39:02;4.65;;;2.22;;
51090;SDS011;37136;43.614;3.908;2023-03-21T06:41:28;9.13;;;2.75;;
51090;SDS011;37136;43.614;3.908;2023-03-21T06:43:55;8.55;;;2.85;;
51090;SDS011;37136;43.614;3.908;2023-03-21T06:46:21;4.80;;;2.33;;
51090;SDS011;37136;43.614;3.908;2023-03-21T06:48:47;7.82;;;2.83;;
51090;SDS011;37136;43.614;3.908;2023-03-21T06:51:14;4.50;;;2.38;;
51090;SDS011;37136;43.614;3.908;2023-03-21T06:53:40;4.70;;;2.35;;
51090;SDS011;37136;43.614;3.908;2023-03-21T06:56:10;6.05;;;2.65;;
51090;SDS011;37136;43.614;3.908;2023-03-21T06:58:36;4.63;;;2.47;;
51090;SDS011;37136;43.614;3.908;2023-03-21T07:01:02;7.88;;;2.75;;
51090;SDS011;37136;43.614;3.908;2023-03-21T07:03:29;20.58;;;3.50;;
51090;SDS011;37136;43.614;3.908;2023-03-21T07:05:56;4.75;;;2.45;;
51090;SDS011;37136;43.614;3.908;2023-03-21T07:08:22;7.68;;;3.38;;
51090;SDS011;37136;43.614;3.908;2023-03-21T07:10:49;6.47;;;2.88;;
51090;SDS011;37136;43.614;3.908;2023-03-21T07:13:15;4.78;;;2.80;;
51090;SDS011;37136;43.614;3.908;2023-03-21T07:15:41;4.30;;;2.42;;
51090;SDS011;37136;43.614;3.908;2023-03-21T07:18:08;6.97;;;2.33;;
51090;SDS011;37136;43.614;3.908;2023-03-21T07:20:34;7.38;;;2.65;;
51090;SDS011;37136;43.614;3.908;2023-03-21T07:23:02;7.53;;;2.78;;
51090;SDS011;37136;43.614;3.908;2023-03-21T07:25:28;7.60;;;3.00;;
51090;SDS011;37136;43.614;3.908;2023-03-21T07:27:54;5.68;;;2.47;;
51090;SDS011;37136;43.614;3.908;2023-03-21T07:30:21;12.98;;;3.40;;
51090;SDS011;37136;43.614;3.908;2023-03-21T07:32:47;5.93;;;2.60;;
51090;SDS011;37136;43.614;3.908;2023-03-21T07:35:15;9.82;;;2.17;;
51090;SDS011;37136;43.614;3.908;2023-03-21T07:37:41;7.25;;;2.47;;
51090;SDS011;37136;43.614;3.908;2023-03-21T07:40:08;8.93;;;2.67;;
51090;SDS011;37136;43.614;3.908;2023-03-21T07:42:37;5.13;;;2.50;;
51090;SDS011;37136;43.614;3.908;2023-03-21T07:45:04;7.13;;;2.50;;
51090;SDS011;37136;43.614;3.908;2023-03-21T07:47:30;5.88;;;2.63;;
51090;SDS011;37136;43.614;3.908;2023-03-21T07:49:56;7.90;;;1.98;;
51090;SDS011;37136;43.614;3.908;2023-03-21T07:52:23;5.03;;;2.00;;
51090;SDS011;37136;43.614;3.908;2023-03-21T07:54:49;6.78;;;2.40;;
51090;SDS011;37136;43.614;3.908;2023-03-21T07:57:15;9.18;;;2.40;;
51090;SDS011;37136;43.614;3.908;2023-03-21T07:59:41;4.22;;;1.85;;
51090;SDS011;37136;43.614;3.908;2023-03-21T08:02:14;2.95;;;1.88;;
51090;SDS011;37136;43.614;3.908;2023-03-21T08:04:40;5.60;;;2.10;;
51090;SDS011;37136;43.614;3.908;2023-03-21T08:07:07;4.63;;;3.05;;
51090;SDS011;37136;43.614;3.908;2023-03-21T08:09:33;6.63;;;2.20;;
51090;SDS011;37136;43.614;3.908;2023-03-21T08:12:00;3.92;;;2.03;;
51090;SDS011;37136;43.614;3.908;2023-03-21T08:14:26;4.40;;;2.20;;
51090;SDS011;37136;43.614;3.908;2023-03-21T08:16:52;4.68;;;2.03;;
51090;SDS011;37136;43.614;3.908;2023-03-21T08:19:18;2.85;;;2.10;;
51090;SDS011;37136;43.614;3.908;2023-03-21T08:21:46;7.70;;;2.30;;
51090;SDS011;37136;43.614;3.908;2023-03-21T08:24:13;5.97;;;2.10;;
51090;SDS011;37136;43.614;3.908;2023-03-21T08:26:39;3.10;;;2.22;;
51090;SDS011;37136;43.614;3.908;2023-03-21T08:29:06;6.55;;;2.47;;
51090;SDS011;37136;43.614;3.908;2023-03-21T08:31:32;5.50;;;1.98;;
51090;SDS011;37136;43.614;3.908;2023-03-21T08:33:58;4.88;;;1.73;;
51090;SDS011;37136;43.614;3.908;2023-03-21T08:36:24;4.72;;;2.42;;
51090;SDS011;37136;43.614;3.908;2023-03-21T08:38:50;4.63;;;2.22;;
51090;SDS011;37136;43.614;3.908;2023-03-21T08:41:21;3.65;;;2.38;;
51090;SDS011;37136;43.614;3.908;2023-03-21T08:43:48;3.50;;;2.67;;
51090;SDS011;37136;43.614;3.908;2023-03-21T08:46:14;10.98;;;2.60;;
51090;SDS011;37136;43.614;3.908;2023-03-21T08:48:40;7.07;;;3.00;;
51090;SDS011;37136;43.614;3.908;2023-03-21T08:51:06;7.68;;;2.70;;
51090;SDS011;37136;43.614;3.908;2023-03-21T08:53:33;5.03;;;3.28;;
51090;SDS011;37136;43.614;3.908;2023-03-21T08:55:59;6.22;;;2.97;;
51090;SDS011;37136;43.614;3.908;2023-03-21T08:58:25;6.70;;;2.28;;
51090;SDS011;37136;43.614;3.908;2023-03-21T09:00:52;9.77;;;2.50;;
51090;SDS011;37136;43.614;3.908;2023-03-21T09:03:18;6.53;;;2.38;;
51090;SDS011;37136;43.614;3.908;2023-03-21T09:05:44;2.90;;;2.40;;
51090;SDS011;37136;43.614;3.908;2023-03-21T09:08:12;5.33;;;2.50;;
51090;SDS011;37136;43.614;3.908;2023-03-21T09:10:38;4.82;;;2.28;;
51090;SDS011;37136;43.614;3.908;2023-03-21T09:13:04;5.03;;;2.30;;
51090;SDS011;37136;43.614;3.908;2023-03-21T09:15:30;5.00;;;2.20;;
51090;SDS011;37136;43.614;3.908;2023-03-21T09:17:57;6.13;;;1.83;;
51090;SDS011;37136;43.614;3.908;2023-03-21T09:20:37;8.25;;;2.65;;
51090;SDS011;37136;43.614;3.908;2023-03-21T09:23:03;3.45;;;2.20;;
51090;SDS011;37136;43.614;3.908;2023-03-21T09:25:30;5.03;;;2.30;;
51090;SDS011;37136;43.614;3.908;2023-03-21T09:27:58;2.83;;;2.03;;
51090;SDS011;37136;43.614;3.908;2023-03-21T09:30:26;7.15;;;2.08;;
51090;SDS011;37136;43.614;3.908;2023-03-21T09:32:53;3.40;;;2.38;;
51090;SDS011;37136;43.614;3.908;2023-03-21T09:35:19;3.42;;;1.98;;
51090;SDS011;37136;43.614;3.908;2023-03-21T09:37:46;4.00;;;2.20;;
51090;SDS011;37136;43.614;3.908;2023-03-21T09:40:13;5.18;;;2.30;;
51090;SDS011;37136;43.614;3.908;2023-03-21T09:45:17;7.05;;;2.40;;
51090;SDS011;37136;43.614;3.908;2023-03-21T09:47:46;3.50;;;1.83;;
51090;SDS011;37136;43.614;3.908;2023-03-21T09:53:12;5.82;;;2.20;;
51090;SDS011;37136;43.614;3.908;2023-03-21T09:55:43;2.92;;;1.63;;
51090;SDS011;37136;43.614;3.908;2023-03-21T10:01:00;8.02;;;2.70;;
51090;SDS011;37136;43.614;3.908;2023-03-21T10:06:02;5.70;;;2.13;;
51090;SDS011;37136;43.614;3.908;2023-03-21T10:08:33;6.32;;;2.60;;
51090;SDS011;37136;43.614;3.908;2023-03-21T10:11:21;10.10;;;3.22;;
51090;SDS011;37136;43.614;3.908;2023-03-21T10:14:02;6.63;;;2.17;;
51090;SDS011;37136;43.614;3.908;2023-03-21T10:16:36;5.03;;;2.28;;
51090;SDS011;37136;43.614;3.908;2023-03-21T10:19:03;7.47;;;2.58;;
51090;SDS011;37136;43.614;3.908;2023-03-21T10:21:31;3.60;;;2.33;;
51090;SDS011;37136;43.614;3.908;2023-03-21T10:23:57;8.02;;;2.75;;
51090;SDS011;37136;43.614;3.908;2023-03-21T10:26:25;8.82;;;3.55;;
51090;SDS011;37136;43.614;3.908;2023-03-21T10:28:53;7.85;;;2.25;;
51090;SDS011;37136;43.614;3.908;2023-03-21T10:31:21;7.03;;;1.83;;
51090;SDS011;37136;43.614;3.908;2023-03-21T10:33:50;6.32;;;2.33;;
51090;SDS011;37136;43.614;3.908;2023-03-21T10:36:24;3.65;;;1.90;;
51090;SDS011;37136;43.614;3.908;2023-03-21T10:38:55;7.07;;;2.40;;
51090;SDS011;37136;43.614;3.908;2023-03-21T10:41:25;6.50;;;1.92;;
51090;SDS011;37136;43.614;3.908;2023-03-21T10:44:04;6.70;;;2.30;;
51090;SDS011;37136;43.614;3.908;2023-03-21T10:46:31;10.77;;;2.95;;
51090;SDS011;37136;43.614;3.908;2023-03-21T10:48:57;3.28;;;1.77;;
51090;SDS011;37136;43.614;3.908;2023-03-21T10:51:29;12.23;;;2.92;;
51090;SDS011;37136;43.614;3.908;2023-03-21T10:54:00;4.70;;;2.65;;
51090;SDS011;37136;43.614;3.908;2023-03-21T10:56:29;3.88;;;1.67;;
51090;SDS011;37136;43.614;3.908;2023-03-21T10:58:56;5.53;;;2.28;;
51090;SDS011;37136;43.614;3.908;2023-03-21T11:01:38;4.65;;;2.53;;
51090;SDS011;37136;43.614;3.908;2023-03-21T11:04:06;8.10;;;2.47;;
51090;SDS011;37136;43.614;3.908;2023-03-21T11:06:35;7.85;;;2.15;;
51090;SDS011;37136;43.614;3.908;2023-03-21T11:11:36;18.20;;;2.90;;
51090;SDS011;37136;43.614;3.908;2023-03-21T11:14:03;4.68;;;2.13;;
51090;SDS011;37136;43.614;3.908;2023-03-21T11:19:03;5.50;;;2.28;;
51090;SDS011;37136;43.614;3.908;2023-03-21T11:21:36;6.90;;;2.13;;
51090;SDS011;37136;43.614;3.908;2023-03-21T11:24:03;7.70;;;2.65;;
51090;SDS011;37136;43.614;3.908;2023-03-21T11:26:31;6.53;;;3.30;;
51090;SDS011;37136;43.614;3.908;2023-03-21T11:29:00;5.68;;;2.85;;
51090;SDS011;37136;43.614;3.908;2023-03-21T11:31:40;11.20;;;2.65;;
51090;SDS011;37136;43.614;3.908;2023-03-21T11:34:10;7.63;;;3.10;;
51090;SDS011;37136;43.614;3.908;2023-03-21T11:39:17;7.63;;;2.95;;
51090;SDS011;37136;43.614;3.908;2023-03-21T11:41:46;9.38;;;3.40;;
51090;SDS011;37136;43.614;3.908;2023-03-21T11:46:57;6.00;;;3.17;;
51090;SDS011;37136;43.614;3.908;2023-03-21T11:49:24;11.38;;;2.80;;
51090;SDS011;37136;43.614;3.908;2023-03-21T11:57:12;4.63;;;2.75;;
51090;SDS011;37136;43.614;3.908;2023-03-21T12:00:14;5.55;;;2.70;;
51090;SDS011;37136;43.614;3.908;2023-03-21T12:05:10;6.20;;;2.60;;
51090;SDS011;37136;43.614;3.908;2023-03-21T12:07:47;6.50;;;2.13;;
51090;SDS011;37136;43.614;3.908;2023-03-21T12:11:03;5.40;;;2.13;;
51090;SDS011;37136;43.614;3.908;2023-03-21T12:16:07;9.43;;;2.22;;
51090;SDS011;37136;43.614;3.908;2023-03-21T12:18:44;8.57;;;2.13;;
51090;SDS011;37136;43.614;3.908;2023-03-21T12:21:19;4.38;;;2.08;;
51090;SDS011;37136;43.614;3.908;2023-03-21T12:23:54;4.25;;;1.85;;
51090;SDS011;37136;43.614;3.908;2023-03-21T12:26:28;5.40;;;2.15;;
51090;SDS011;37136;43.614;3.908;2023-03-21T12:36:38;5.05;;;2.05;;
51090;SDS011;37136;43.614;3.908;2023-03-21T12:44:28;5.20;;;2.10;;
51090;SDS011;37136;43.614;3.908;2023-03-21T12:47:07;4.80;;;2.08;;
51090;SDS011;37136;43.614;3.908;2023-03-21T12:52:05;1.90;;;1.70;;
51090;SDS011;37136;43.614;3.908;2023-03-21T12:54:36;3.95;;;2.00;;
51090;SDS011;37136;43.614;3.908;2023-03-21T12:57:18;4.93;;;2.63;;
51090;SDS011;37136;43.614;3.908;2023-03-21T13:02:13;5.93;;;2.58;;
51090;SDS011;37136;43.614;3.908;2023-03-21T13:07:13;4.93;;;2.40;;
51090;SDS011;37136;43.614;3.908;2023-03-21T13:09:41;6.60;;;2.72;;
51090;SDS011;37136;43.614;3.908;2023-03-21T13:15:02;6.10;;;2.67;;
51090;SDS011;37136;43.614;3.908;2023-03-21T13:17:48;5.60;;;2.28;;
51090;SDS011;37136;43.614;3.908;2023-03-21T13:20:25;5.05;;;3.50;;
51090;SDS011;37136;43.614;3.908;2023-03-21T13:22:53;3.42;;;2.80;;
51090;SDS011;37136;43.614;3.908;2023-03-21T13:25:21;5.43;;;3.22;;
51090;SDS011;37136;43.614;3.908;2023-03-21T13:28:00;5.93;;;3.72;;
51090;SDS011;37136;43.614;3.908;2023-03-21T13:30:27;8.45;;;2.85;;
51090;SDS011;37136;43.614;3.908;2023-03-21T13:33:04;7.55;;;3.17;;
51090;SDS011;37136;43.614;3.908;2023-03-21T13:38:05;50.35;;;4.80;;
51090;SDS011;37136;43.614;3.908;2023-03-21T13:40:49;5.75;;;2.92;;
51090;SDS011;37136;43.614;3.908;2023-03-21T13:43:30;11.68;;;2.92;;
51090;SDS011;37136;43.614;3.908;2023-03-21T13:46:04;7.97;;;3.25;;
51090;SDS011;37136;43.614;3.908;2023-03-21T13:48:39;4.88;;;3.15;;
51090;SDS011;37136;43.614;3.908;2023-03-21T13:51:05;8.77;;;3.00;;
51090;SDS011;37136;43.614;3.908;2023-03-21T13:53:35;5.97;;;3.05;;
51090;SDS011;37136;43.614;3.908;2023-03-21T13:58:48;6.40;;;3.50;;
51090;SDS011;37136;43.614;3.908;2023-03-21T14:03:48;4.05;;;2.28;;
51090;SDS011;37136;43.614;3.908;2023-03-21T14:06:15;7.10;;;2.45;;
51090;SDS011;37136;43.614;3.908;2023-03-21T14:08:45;3.78;;;2.80;;
51090;SDS011;37136;43.614;3.908;2023-03-21T14:11:13;4.55;;;2.33;;
51090;SDS011;37136;43.614;3.908;2023-03-21T14:13:42;6.45;;;1.98;;
51090;SDS011;37136;43.614;3.908;2023-03-21T14:16:12;6.30;;;2.45;;
51090;SDS011;37136;43.614;3.908;2023-03-21T14:18:52;3.85;;;1.90;;
51090;SDS011;37136;43.614;3.908;2023-03-21T14:21:23;4.50;;;2.50;;
51090;SDS011;37136;43.614;3.908;2023-03-21T14:23:59;6.22;;;2.30;;
51090;SDS011;37136;43.614;3.908;2023-03-21T14:26:30;4.43;;;1.85;;
51090;SDS011;37136;43.614;3.908;2023-03-21T14:28:58;5.75;;;2.05;;
51090;SDS011;37136;43.614;3.908;2023-03-21T14:31:24;5.22;;;1.90;;
51090;SDS011;37136;43.614;3.908;2023-03-21T14:33:51;4.70;;;1.92;;
51090;SDS011;37136;43.614;3.908;2023-03-21T14:36:19;5.28;;;1.50;;
51090;SDS011;37136;43.614;3.908;2023-03-21T14:41:31;2.75;;;1.33;;
51090;SDS011;37136;43.614;3.908;2023-03-21T14:46:46;3.13;;;1.20;;
51090;SDS011;37136;43.614;3.908;2023-03-21T14:49:29;4.40;;;1.35;;
51090;SDS011;37136;43.614;3.908;2023-03-21T14:51:56;4.43;;;1.30;;
51090;SDS011;37136;43.614;3.908;2023-03-21T14:54:22;2.92;;;1.55;;
51090;SDS011;37136;43.614;3.908;2023-03-21T14:56:51;2.55;;;1.20;;
51090;SDS011;37136;43.614;3.908;2023-03-21T14:59:20;2.42;;;1.17;;
51090;SDS011;37136;43.614;3.908;2023-03-21T15:01:47;2.30;;;1.52;;
51090;SDS011;37136;43.614;3.908;2023-03-21T15:04:14;4.20;;;1.58;;
51090;SDS011;37136;43.614;3.908;2023-03-21T15:06:48;3.05;;;1.65;;
51090;SDS011;37136;43.614;3.908;2023-03-21T15:09:15;3.22;;;1.30;;
51090;SDS011;37136;43.614;3.908;2023-03-21T15:11:47;4.00;;;2.03;;
51090;SDS011;37136;43.614;3.908;2023-03-21T15:14:14;5.63;;;1.63;;
51090;SDS011;37136;43.614;3.908;2023-03-21T15:16:41;4.30;;;1.30;;
51090;SDS011;37136;43.614;3.908;2023-03-21T15:19:07;5.45;;;1.65;;
51090;SDS011;37136;43.614;3.908;2023-03-21T15:21:39;6.47;;;2.15;;
51090;SDS011;37136;43.614;3.908;2023-03-21T15:24:17;6.00;;;2.35;;
51090;SDS011;37136;43.614;3.908;2023-03-21T15:26:44;4.47;;;1.42;;
51090;SDS011;37136;43.614;3.908;2023-03-21T15:29:10;2.58;;;1.42;;
51090;SDS011;37136;43.614;3.908;2023-03-21T15:31:38;2.63;;;1.95;;
51090;SDS011;37136;43.614;3.908;2023-03-21T15:34:04;4.22;;;1.77;;
51090;SDS011;37136;43.614;3.908;2023-03-21T15:36:31;3.65;;;1.67;;
51090;SDS011;37136;43.614;3.908;2023-03-21T15:39:03;2.92;;;1.80;;
51090;SDS011;37136;43.614;3.908;2023-03-21T15:41:30;5.35;;;2.08;;
51090;SDS011;37136;43.614;3.908;2023-03-21T15:44:30;3.45;;;1.52;;
51090;SDS011;37136;43.614;3.908;2023-03-21T15:46:50;4.40;;;1.80;;
51090;SDS011;37136;43.614;3.908;2023-03-21T15:49:23;4.78;;;1.80;;
51090;SDS011;37136;43.614;3.908;2023-03-21T15:51:54;28.48;;;2.72;;
51090;SDS011;37136;43.614;3.908;2023-03-21T15:55:14;5.15;;;1.60;;
51090;SDS011;37136;43.614;3.908;2023-03-21T15:57:31;3.58;;;1.52;;
51090;SDS011;37136;43.614;3.908;2023-03-21T16:00:03;2.70;;;1.27;;
51090;SDS011;37136;43.614;3.908;2023-03-21T16:02:33;2.90;;;1.63;;
51090;SDS011;37136;43.614;3.908;2023-03-21T16:05:01;4.82;;;1.70;;
51090;SDS011;37136;43.614;3.908;2023-03-21T16:07:27;4.70;;;1.40;;
51090;SDS011;37136;43.614;3.908;2023-03-21T16:09:58;5.68;;;2.25;;
51090;SDS011;37136;43.614;3.908;2023-03-21T16:12:24;8.07;;;3.88;;
51090;SDS011;37136;43.614;3.908;2023-03-21T16:14:51;7.18;;;4.80;;
51090;SDS011;37136;43.614;3.908;2023-03-21T16:17:25;8.52;;;3.38;;
51090;SDS011;37136;43.614;3.908;2023-03-21T16:19:52;6.57;;;2.75;;
51090;SDS011;37136;43.614;3.908;2023-03-21T16:22:19;5.35;;;2.50;;
51090;SDS011;37136;43.614;3.908;2023-03-21T16:24:46;5.00;;;2.28;;
51090;SDS011;37136;43.614;3.908;2023-03-21T16:27:12;4.55;;;1.98;;
51090;SDS011;37136;43.614;3.908;2023-03-21T16:29:40;3.97;;;2.50;;
51090;SDS011;37136;43.614;3.908;2023-03-21T16:32:09;4.43;;;2.40;;
51090;SDS011;37136;43.614;3.908;2023-03-21T16:34:37;5.95;;;2.90;;
51090;SDS011;37136;43.614;3.908;2023-03-21T16:37:05;6.32;;;2.10;;
51090;SDS011;37136;43.614;3.908;2023-03-21T16:39:31;9.57;;;2.63;;
51090;SDS011;37136;43.614;3.908;2023-03-21T16:41:57;6.20;;;2.72;;
51090;SDS011;37136;43.614;3.908;2023-03-21T16:44:23;3.60;;;2.17;;
51090;SDS011;37136;43.614;3.908;2023-03-21T16:46:49;5.28;;;2.72;;